createdAt,value
2023-05-20T00:00:14.559Z,8.50
2023-05-20T00:03:08.409Z,7.90
2023-05-20T00:05:42.991Z,8.80
2023-05-20T00:08:17.051Z,8.20
2023-05-20T00:10:50.767Z,7.30
2023-05-20T00:13:25.238Z,7.60
2023-05-20T00:15:58.952Z,8.80
2023-05-20T00:18:32.951Z,9.50
2023-05-20T00:21:06.800Z,9.40
2023-05-20T00:23:41.018Z,8.50
2023-05-20T00:26:14.348Z,8.50
2023-05-20T00:28:48.418Z,8.20
2023-05-20T00:31:22.478Z,8.40
2023-05-20T00:33:56.361Z,7.80
2023-05-20T00:36:30.263Z,7.90
2023-05-20T00:39:04.052Z,7.40
2023-05-20T00:41:37.942Z,6.80
2023-05-20T00:44:11.877Z,6.70
2023-05-20T00:46:46.103Z,8.30
2023-05-20T00:49:19.782Z,6.70
2023-05-20T00:51:53.614Z,6.80
2023-05-20T00:54:27.237Z,6.50
2023-05-20T00:57:03.780Z,6.60
2023-05-20T00:59:38.359Z,7.00
2023-05-20T01:02:12.311Z,6.90
2023-05-20T01:04:47.755Z,6.00
2023-05-20T01:07:21.959Z,6.80
2023-05-20T01:09:56.615Z,6.20
2023-05-20T01:12:33.977Z,6.60
2023-05-20T01:15:11.067Z,6.20
2023-05-20T01:17:47.496Z,6.10
2023-05-20T01:20:22.236Z,6.20
2023-05-20T01:22:57.839Z,5.60
2023-05-20T01:25:31.717Z,6.00
2023-05-20T01:28:06.426Z,5.60
2023-05-20T01:30:50.478Z,5.90
2023-05-20T01:33:27.228Z,5.90
2023-05-20T01:36:01.598Z,5.70
2023-05-20T01:38:35.788Z,5.50
2023-05-20T01:41:10.944Z,5.80
2023-05-20T01:43:45.012Z,5.40
2023-05-20T01:46:18.709Z,5.90
2023-05-20T01:48:52.779Z,5.00
2023-05-20T01:51:26.425Z,5.30
2023-05-20T01:54:00.596Z,5.80
2023-05-20T01:56:34.465Z,6.00
2023-05-20T01:59:08.160Z,5.80
2023-05-20T02:01:41.677Z,5.10
2023-05-20T02:04:15.333Z,5.30
2023-05-20T02:06:48.741Z,5.10
2023-05-20T02:09:23.399Z,5.30
2023-05-20T02:11:59.743Z,5.40
2023-05-20T02:14:33.602Z,5.20
2023-05-20T02:17:07.646Z,5.90
2023-05-20T02:19:41.702Z,5.50
2023-05-20T02:22:15.333Z,4.80
2023-05-20T02:24:50.669Z,4.90
2023-05-20T02:27:24.999Z,5.00
2023-05-20T02:29:59.574Z,5.80
2023-05-20T02:32:34.165Z,4.80
2023-05-20T02:35:08.616Z,5.00
2023-05-20T02:37:42.448Z,5.00
2023-05-20T02:40:16.834Z,4.80
2023-05-20T02:42:50.394Z,4.60
2023-05-20T02:45:24.227Z,4.90
2023-05-20T02:47:58.744Z,4.70
2023-05-20T02:50:32.486Z,4.90
2023-05-20T02:53:05.901Z,4.40
2023-05-20T02:55:40.138Z,5.30
2023-05-20T02:58:14.054Z,4.80
2023-05-20T03:00:48.113Z,5.00
2023-05-20T03:03:23.172Z,4.40
2023-05-20T03:05:57.092Z,4.50
2023-05-20T03:08:31.623Z,5.10
2023-05-20T03:11:06.735Z,4.80
2023-05-20T03:13:40.616Z,5.40
2023-05-20T03:16:14.741Z,5.20
2023-05-20T03:18:48.238Z,5.00
2023-05-20T03:21:29.816Z,4.90
2023-05-20T03:24:03.422Z,4.60
2023-05-20T03:26:38.935Z,4.80
2023-05-20T03:29:13.254Z,5.40
2023-05-20T03:31:47.168Z,5.10
2023-05-20T03:34:20.951Z,4.70
2023-05-20T03:36:54.885Z,4.30
2023-05-20T03:39:28.452Z,5.20
2023-05-20T03:42:02.455Z,4.90
2023-05-20T03:44:36.481Z,4.30
2023-05-20T03:47:10.984Z,4.20
2023-05-20T03:49:45.261Z,4.10
2023-05-20T03:52:19.233Z,4.90
2023-05-20T03:54:53.021Z,4.50
2023-05-20T03:57:27.360Z,4.70
2023-05-20T04:00:02.656Z,4.80
2023-05-20T04:02:37.715Z,5.30
2023-05-20T04:05:12.877Z,4.50
2023-05-20T04:07:47.366Z,4.80
2023-05-20T04:10:22.582Z,4.50
2023-05-20T04:12:57.491Z,4.30
2023-05-20T04:15:31.574Z,4.90
2023-05-20T04:18:06.101Z,5.10
2023-05-20T04:20:41.952Z,5.20
2023-05-20T04:23:16.626Z,4.80
2023-05-20T04:25:50.496Z,5.40
2023-05-20T04:28:28.881Z,4.50
2023-05-20T04:31:06.015Z,4.60
2023-05-20T04:33:41.802Z,4.60
2023-05-20T04:36:16.792Z,4.80
2023-05-20T04:38:51.151Z,4.90
2023-05-20T04:41:25.671Z,5.10
2023-05-20T04:44:01.144Z,4.10
2023-05-20T04:46:35.567Z,4.80
2023-05-20T04:49:09.061Z,4.80
2023-05-20T04:51:44.248Z,5.00
2023-05-20T04:54:20.679Z,4.90
2023-05-20T04:56:55.059Z,4.80
2023-05-20T04:59:29.325Z,4.30
2023-05-20T05:02:03.128Z,4.40
2023-05-20T05:04:36.919Z,4.70
2023-05-20T05:07:11.424Z,4.60
2023-05-20T05:09:44.967Z,3.90
2023-05-20T05:12:18.684Z,4.00
2023-05-20T05:14:52.978Z,4.70
2023-05-20T05:17:26.727Z,4.70
2023-05-20T05:20:00.500Z,4.30
2023-05-20T05:22:37.772Z,4.30
2023-05-20T05:25:13.388Z,4.30
2023-05-20T05:27:49.814Z,4.10
2023-05-20T05:30:23.761Z,4.10
2023-05-20T05:32:58.032Z,4.30
2023-05-20T05:35:32.386Z,3.90
2023-05-20T05:38:06.158Z,4.20
2023-05-20T05:40:40.345Z,4.30
2023-05-20T05:43:14.392Z,4.20
2023-05-20T05:45:48.882Z,4.30
2023-05-20T05:48:23.042Z,4.60
2023-05-20T05:50:57.050Z,3.90
2023-05-20T05:53:31.115Z,4.20
2023-05-20T05:56:04.886Z,4.00
2023-05-20T05:58:40.091Z,4.70
2023-05-20T06:01:14.304Z,5.00
2023-05-20T06:03:48.494Z,4.30
2023-05-20T06:06:22.324Z,4.60
2023-05-20T06:08:56.152Z,5.10
2023-05-20T06:11:30.707Z,4.00
2023-05-20T06:14:05.280Z,4.20
2023-05-20T06:16:39.687Z,4.70
2023-05-20T06:19:14.422Z,4.60
2023-05-20T06:21:48.150Z,4.50
2023-05-20T06:24:24.268Z,4.50
2023-05-20T06:26:58.243Z,4.80
2023-05-20T06:29:32.257Z,4.60
2023-05-20T06:32:06.083Z,4.20
2023-05-20T06:34:40.432Z,4.90
2023-05-20T06:37:14.802Z,4.90
2023-05-20T06:39:54.390Z,4.10
2023-05-20T06:42:28.472Z,4.40
2023-05-20T06:45:14.352Z,4.60
2023-05-20T06:48:11.602Z,4.40
2023-05-20T06:50:48.959Z,4.90
2023-05-20T06:53:22.966Z,5.00
2023-05-20T06:55:57.350Z,4.40
2023-05-20T06:58:31.566Z,5.50
2023-05-20T07:01:05.671Z,5.10
2023-05-20T07:03:39.659Z,4.50
2023-05-20T07:06:13.503Z,5.10
2023-05-20T07:08:47.963Z,4.70
2023-05-20T07:11:22.069Z,4.70
2023-05-20T07:13:55.629Z,4.60
2023-05-20T07:16:35.400Z,4.40
2023-05-20T07:19:10.274Z,5.00
2023-05-20T07:21:44.485Z,4.40
2023-05-20T07:24:41.149Z,4.10
2023-05-20T07:27:14.983Z,4.60
2023-05-20T07:29:48.841Z,4.70
2023-05-20T07:32:23.444Z,4.70
2023-05-20T07:34:57.518Z,4.70
2023-05-20T07:37:31.607Z,4.40
2023-05-20T07:40:11.739Z,4.80
2023-05-20T07:42:45.679Z,4.50
2023-05-20T07:45:20.079Z,4.60
2023-05-20T07:47:53.952Z,4.50
2023-05-20T07:50:28.235Z,4.60
2023-05-20T07:53:02.472Z,4.30
2023-05-20T07:55:38.764Z,4.50
2023-05-20T07:58:13.685Z,4.10
2023-05-20T08:00:48.178Z,4.60
2023-05-20T08:03:23.052Z,4.80
2023-05-20T08:06:05.438Z,4.20
2023-05-20T08:08:40.976Z,4.60
2023-05-20T08:11:19.403Z,4.00
2023-05-20T08:13:53.744Z,4.70
2023-05-20T08:16:30.029Z,4.40
2023-05-20T08:19:03.763Z,4.50
2023-05-20T08:21:37.946Z,4.30
2023-05-20T08:24:11.720Z,4.60
2023-05-20T08:26:46.458Z,4.10
2023-05-20T08:29:20.842Z,4.20
2023-05-20T08:31:54.816Z,4.50
2023-05-20T08:34:29.080Z,4.80
2023-05-20T08:37:03.545Z,5.20
2023-05-20T08:39:37.314Z,4.10
2023-05-20T08:42:14.201Z,4.30
2023-05-20T08:44:48.892Z,4.40
2023-05-20T08:47:23.452Z,3.80
2023-05-20T08:49:57.065Z,4.40
2023-05-20T08:52:33.508Z,4.30
2023-05-20T08:55:11.851Z,3.90
2023-05-20T09:00:22.133Z,4.50
2023-05-20T09:02:56.468Z,4.30
2023-05-20T09:05:33.297Z,4.40
2023-05-20T09:08:11.918Z,4.40
2023-05-20T09:10:46.325Z,4.80
2023-05-20T09:13:23.999Z,4.80
2023-05-20T09:15:57.944Z,4.60
2023-05-20T09:18:32.318Z,4.50
2023-05-20T09:21:08.624Z,4.80
2023-05-20T09:23:42.239Z,4.40
2023-05-20T09:26:16.943Z,4.90
2023-05-20T09:28:50.504Z,5.00
2023-05-20T09:31:27.606Z,4.40
2023-05-20T09:34:01.762Z,5.00
2023-05-20T09:36:37.692Z,5.00
2023-05-20T09:39:15.515Z,4.60
2023-05-20T09:41:58.309Z,4.60
2023-05-20T09:44:32.907Z,5.30
2023-05-20T09:47:08.811Z,5.30
2023-05-20T09:49:43.661Z,5.00
2023-05-20T09:52:20.724Z,4.60
2023-05-20T09:54:58.165Z,5.20
2023-05-20T09:57:35.381Z,5.10
2023-05-20T10:00:14.156Z,5.30
2023-05-20T10:02:50.319Z,5.60
2023-05-20T10:05:26.330Z,5.30
2023-05-20T10:08:24.749Z,5.50
2023-05-20T10:11:07.428Z,5.00
2023-05-20T10:13:57.313Z,5.30
2023-05-20T10:16:38.289Z,4.80
2023-05-20T10:19:30.238Z,4.70
2023-05-20T10:22:05.750Z,5.40
2023-05-20T10:24:41.487Z,5.60
2023-05-20T10:27:17.432Z,5.50
2023-05-20T10:29:55.942Z,5.70
2023-05-20T10:32:31.927Z,5.50
2023-05-20T10:35:07.368Z,5.80
2023-05-20T10:37:48.607Z,5.80
2023-05-20T10:40:24.362Z,5.40
2023-05-20T10:43:01.960Z,5.40
2023-05-20T10:45:37.777Z,5.70
2023-05-20T10:48:21.777Z,5.30
2023-05-20T10:50:58.829Z,5.50
2023-05-20T10:53:42.118Z,5.50
2023-05-20T10:56:23.347Z,5.20
2023-05-20T10:58:58.109Z,5.30
2023-05-20T11:01:32.593Z,5.70
2023-05-20T11:04:07.033Z,5.60
2023-05-20T11:06:40.987Z,5.40
2023-05-20T11:09:14.988Z,5.40
2023-05-20T11:11:48.553Z,5.80
2023-05-20T11:14:23.075Z,4.90
2023-05-20T11:17:00.515Z,5.40
2023-05-20T11:19:35.077Z,5.80
2023-05-20T11:22:10.850Z,6.20
2023-05-20T11:24:44.534Z,5.30
2023-05-20T11:27:18.184Z,5.30
2023-05-20T11:29:53.394Z,5.50
2023-05-20T11:32:27.296Z,5.30
2023-05-20T11:35:02.098Z,5.30
2023-05-20T11:37:37.780Z,5.50
2023-05-20T11:40:13.698Z,5.10
2023-05-20T11:42:49.544Z,6.50
2023-05-20T11:45:23.389Z,5.60
2023-05-20T11:48:08.379Z,5.60
2023-05-20T11:50:44.203Z,5.50
2023-05-20T11:53:20.854Z,5.30
2023-05-20T11:55:57.271Z,5.50
2023-05-20T11:58:32.704Z,6.10
2023-05-20T12:01:21.048Z,5.60
2023-05-20T12:03:56.620Z,6.20
2023-05-20T12:06:30.630Z,6.00
2023-05-20T12:09:07.539Z,6.40
2023-05-20T12:11:42.481Z,6.00
2023-05-20T12:14:16.596Z,6.20
2023-05-20T12:16:50.047Z,5.60
2023-05-20T12:19:24.656Z,5.90
2023-05-20T12:21:58.592Z,6.40
2023-05-20T12:24:32.334Z,5.90
2023-05-20T12:27:06.819Z,6.20
2023-05-20T12:29:40.461Z,5.80
2023-05-20T12:32:13.896Z,6.00
2023-05-20T12:34:47.745Z,6.10
2023-05-20T12:37:21.467Z,6.30
2023-05-20T12:39:55.075Z,5.20
2023-05-20T12:42:28.456Z,6.20
2023-05-20T12:45:02.635Z,6.00
2023-05-20T12:47:37.308Z,5.60
2023-05-20T12:50:12.396Z,6.00
2023-05-20T12:52:46.410Z,6.00
2023-05-20T12:55:30.483Z,5.70
2023-05-20T12:58:04.426Z,6.60
2023-05-20T13:00:38.726Z,5.20
2023-05-20T13:03:12.765Z,5.80
2023-05-20T13:05:46.651Z,5.50
2023-05-20T13:08:20.560Z,5.90
2023-05-20T13:10:54.233Z,5.60
2023-05-20T13:13:27.918Z,6.30
2023-05-20T13:16:02.113Z,6.20
2023-05-20T13:18:36.001Z,6.30
2023-05-20T13:21:10.004Z,6.40
2023-05-20T13:23:45.611Z,5.90
2023-05-20T13:26:19.859Z,5.70
2023-05-20T13:28:53.902Z,6.10
2023-05-20T13:31:27.769Z,5.90
2023-05-20T13:34:02.327Z,5.60
2023-05-20T13:36:36.661Z,5.40
2023-05-20T13:39:10.575Z,6.00
2023-05-20T13:41:44.541Z,6.20
2023-05-20T13:44:18.578Z,5.50
2023-05-20T13:46:52.735Z,5.80
2023-05-20T13:49:26.876Z,5.90
2023-05-20T13:52:01.513Z,5.60
2023-05-20T13:54:35.808Z,6.30
2023-05-20T13:57:10.494Z,5.60
2023-05-20T13:59:44.357Z,5.50
2023-05-20T14:02:17.994Z,6.00
2023-05-20T14:04:51.633Z,5.70
2023-05-20T14:07:24.979Z,5.40
2023-05-20T14:09:59.165Z,6.00
2023-05-20T14:12:33.089Z,5.60
2023-05-20T14:15:07.896Z,6.30
2023-05-20T14:17:42.036Z,5.70
2023-05-20T14:20:16.462Z,6.00
2023-05-20T14:22:50.047Z,5.70
2023-05-20T14:25:24.132Z,5.70
2023-05-20T14:27:58.441Z,5.50
2023-05-20T14:30:32.846Z,6.40
2023-05-20T14:33:07.066Z,5.80
2023-05-20T14:35:40.884Z,5.90
2023-05-20T14:38:14.745Z,6.10
2023-05-20T14:40:48.266Z,5.50
2023-05-20T14:43:21.764Z,5.90
2023-05-20T14:45:55.571Z,5.60
2023-05-20T14:48:29.556Z,5.70
2023-05-20T14:51:03.487Z,5.80
2023-05-20T14:53:37.873Z,6.40
2023-05-20T14:56:12.346Z,5.80
2023-05-20T14:58:46.108Z,6.10
2023-05-20T15:01:20.465Z,6.20
2023-05-20T15:03:54.351Z,6.60
2023-05-20T15:06:28.104Z,5.80
2023-05-20T15:09:01.788Z,5.80
2023-05-20T15:11:35.654Z,5.80
2023-05-20T15:14:09.230Z,5.50
2023-05-20T15:16:44.834Z,5.60
2023-05-20T15:19:18.736Z,5.80
2023-05-20T15:21:53.179Z,6.00
2023-05-20T15:24:27.197Z,5.60
2023-05-20T15:27:00.660Z,6.00
2023-05-20T15:29:34.533Z,5.60
2023-05-20T15:32:09.386Z,5.90
2023-05-20T15:34:43.332Z,5.70
2023-05-20T15:37:16.736Z,5.70
2023-05-20T15:39:51.513Z,6.30
2023-05-20T15:42:25.275Z,5.60
2023-05-20T15:44:58.942Z,5.40
2023-05-20T15:47:32.735Z,5.80
2023-05-20T15:50:08.846Z,5.90
2023-05-20T15:52:43.130Z,6.30
2023-05-20T15:55:17.106Z,5.70
2023-05-20T15:57:51.189Z,5.70
2023-05-20T16:00:25.938Z,5.80
2023-05-20T16:03:00.049Z,5.60
2023-05-20T16:05:33.988Z,5.80
2023-05-20T16:08:08.326Z,5.80
2023-05-20T16:10:42.046Z,5.50
2023-05-20T16:13:15.604Z,5.90
2023-05-20T16:15:51.486Z,5.90
2023-05-20T16:18:25.282Z,5.60
2023-05-20T16:20:59.422Z,6.10
2023-05-20T16:23:33.186Z,5.80
2023-05-20T16:26:07.057Z,6.10
2023-05-20T16:28:40.749Z,6.10
2023-05-20T16:31:14.784Z,5.60
2023-05-20T16:33:48.904Z,5.60
2023-05-20T16:36:23.515Z,5.50
2023-05-20T16:38:57.303Z,5.50
2023-05-20T16:41:31.274Z,5.70
2023-05-20T16:44:05.137Z,5.70
2023-05-20T16:46:38.742Z,5.90
2023-05-20T16:49:12.482Z,5.60
2023-05-20T16:51:47.587Z,5.70
2023-05-20T16:54:21.708Z,5.70
2023-05-20T16:56:55.401Z,5.30
2023-05-20T16:59:30.651Z,5.60
2023-05-20T17:02:04.261Z,6.00
2023-05-20T17:04:38.486Z,5.90
2023-05-20T17:07:13.774Z,6.00
2023-05-20T17:09:47.514Z,6.50
2023-05-20T17:12:21.438Z,5.50
2023-05-20T17:14:55.173Z,5.70
2023-05-20T17:17:29.171Z,5.20
2023-05-20T17:20:02.720Z,5.40
2023-05-20T17:22:36.683Z,5.20
2023-05-20T17:25:12.126Z,4.90
2023-05-20T17:27:45.701Z,4.90
2023-05-20T17:30:19.838Z,5.30
2023-05-20T17:32:54.174Z,5.20
2023-05-20T17:35:28.580Z,5.10
2023-05-20T17:38:02.382Z,4.90
2023-05-20T17:40:36.918Z,4.90
2023-05-20T17:43:10.909Z,4.70
2023-05-20T17:45:44.462Z,5.00
2023-05-20T17:48:18.299Z,4.80
2023-05-20T17:50:52.162Z,4.50
2023-05-20T17:53:26.057Z,4.50
2023-05-20T17:55:59.992Z,5.00
2023-05-20T17:58:34.111Z,5.30
2023-05-20T18:01:09.725Z,4.70
2023-05-20T18:03:43.840Z,5.30
2023-05-20T18:06:18.310Z,5.60
2023-05-20T18:08:52.098Z,5.10
2023-05-20T18:11:27.347Z,5.10
2023-05-20T18:14:01.625Z,5.00
2023-05-20T18:16:35.507Z,4.60
2023-05-20T18:19:09.328Z,4.90
2023-05-20T18:21:43.903Z,4.40
2023-05-20T18:24:19.566Z,4.90
2023-05-20T18:26:53.971Z,4.80
2023-05-20T18:29:27.467Z,5.00
2023-05-20T18:32:01.650Z,5.30
2023-05-20T18:34:35.832Z,6.30
2023-05-20T18:37:10.211Z,6.00
2023-05-20T18:39:44.044Z,4.80
2023-05-20T18:42:18.144Z,5.10
2023-05-20T18:44:51.777Z,5.40
2023-05-20T18:47:26.111Z,6.10
2023-05-20T18:50:00.074Z,5.40
2023-05-20T18:52:34.033Z,5.10
2023-05-20T18:55:09.181Z,5.30
2023-05-20T18:57:42.965Z,5.00
2023-05-20T19:00:18.791Z,5.00
2023-05-20T19:02:52.676Z,5.20
2023-05-20T19:05:26.932Z,5.80
2023-05-20T19:08:02.954Z,5.50
2023-05-20T19:10:36.786Z,5.80
2023-05-20T19:13:10.243Z,6.20
2023-05-20T19:15:44.171Z,5.80
2023-05-20T19:18:17.797Z,5.90
2023-05-20T19:20:52.761Z,6.20
2023-05-20T19:23:26.987Z,5.90
2023-05-20T19:26:00.998Z,6.10
2023-05-20T19:28:34.935Z,6.10
2023-05-20T19:31:09.186Z,5.90
2023-05-20T19:33:43.081Z,6.10
2023-05-20T19:36:16.882Z,5.30
2023-05-20T19:38:50.543Z,5.70
2023-05-20T19:41:24.030Z,5.70
2023-05-20T19:43:57.816Z,6.30
2023-05-20T19:46:31.722Z,6.20
2023-05-20T19:49:05.473Z,5.90
2023-05-20T19:51:40.063Z,6.10
2023-05-20T19:54:13.610Z,6.40
2023-05-20T19:56:47.237Z,6.30
2023-05-20T19:59:20.879Z,6.20
2023-05-20T20:01:54.656Z,5.70
2023-05-20T20:04:28.371Z,6.10
2023-05-20T20:07:03.057Z,6.00
2023-05-20T20:09:49.426Z,6.20
2023-05-20T20:12:23.928Z,6.00
2023-05-20T20:14:58.071Z,5.80
2023-05-20T20:17:34.073Z,6.80
2023-05-20T20:20:10.606Z,6.80
2023-05-20T20:22:44.703Z,6.60
2023-05-20T20:25:19.024Z,6.20
2023-05-20T20:27:53.058Z,6.60
2023-05-20T20:30:27.183Z,5.80
2023-05-20T20:33:01.726Z,6.60
2023-05-20T20:35:35.622Z,6.20
2023-05-20T20:38:10.379Z,6.80
2023-05-20T20:40:45.197Z,6.70
2023-05-20T20:43:21.178Z,5.90
2023-05-20T20:45:56.838Z,6.00
2023-05-20T20:48:31.038Z,5.60
2023-05-20T20:51:05.060Z,6.10
2023-05-20T20:53:38.645Z,6.60
2023-05-20T20:56:12.736Z,6.20
2023-05-20T20:58:46.615Z,6.10
2023-05-20T21:01:20.100Z,6.80
2023-05-20T21:03:54.882Z,6.40
2023-05-20T21:06:28.945Z,6.50
2023-05-20T21:09:05.211Z,6.50
2023-05-20T21:11:42.473Z,6.40
2023-05-20T21:14:16.483Z,5.60
2023-05-20T21:16:50.159Z,5.90
2023-05-20T21:19:24.353Z,5.80
2023-05-20T21:22:00.043Z,6.20
2023-05-20T21:24:34.138Z,6.00
2023-05-20T21:27:08.382Z,6.20
2023-05-20T21:29:41.864Z,6.10
2023-05-20T21:32:15.604Z,6.40
2023-05-20T21:34:49.193Z,6.00
2023-05-20T21:37:22.987Z,6.30
2023-05-20T21:39:56.693Z,6.50
2023-05-20T21:42:30.566Z,6.40
2023-05-20T21:45:04.311Z,6.40
2023-05-20T21:47:38.080Z,6.40
2023-05-20T21:50:13.376Z,6.20
2023-05-20T21:52:47.603Z,6.40
2023-05-20T21:55:23.958Z,6.50
2023-05-20T21:57:57.817Z,6.50
2023-05-20T22:00:31.335Z,6.50
2023-05-20T22:03:06.108Z,6.00
2023-05-20T22:05:40.295Z,5.60
2023-05-20T22:08:14.310Z,6.10
2023-05-20T22:10:48.795Z,6.10
2023-05-20T22:13:26.465Z,5.60
2023-05-20T22:16:00.479Z,5.60
2023-05-20T22:18:34.128Z,5.90
2023-05-20T22:21:08.308Z,5.60
2023-05-20T22:23:42.514Z,6.00
2023-05-20T22:26:18.743Z,5.60
2023-05-20T22:28:52.688Z,6.00
2023-05-20T22:31:26.346Z,5.30
2023-05-20T22:33:59.797Z,5.30
2023-05-20T22:36:36.714Z,6.40
2023-05-20T22:39:10.616Z,5.50
2023-05-20T22:41:44.169Z,5.20
2023-05-20T22:44:17.885Z,5.60
2023-05-20T22:46:51.382Z,5.80
2023-05-20T22:49:25.500Z,5.80
2023-05-20T22:51:59.719Z,5.10
2023-05-20T22:54:43.114Z,5.20
2023-05-20T22:57:17.421Z,5.60
2023-05-20T22:59:52.379Z,5.50
2023-05-20T23:02:26.488Z,5.00
2023-05-20T23:05:00.290Z,5.40
2023-05-20T23:07:34.219Z,5.10
2023-05-20T23:10:08.358Z,5.50
2023-05-20T23:12:42.211Z,5.70
2023-05-20T23:15:16.070Z,5.40
2023-05-20T23:17:52.056Z,4.80
2023-05-20T23:20:29.823Z,5.50
2023-05-20T23:23:10.856Z,5.40
2023-05-20T23:25:46.265Z,5.20
2023-05-20T23:28:20.120Z,5.10
2023-05-20T23:30:53.870Z,5.40
2023-05-20T23:33:27.869Z,4.70
2023-05-20T23:36:01.639Z,5.20
2023-05-20T23:38:35.735Z,4.90
2023-05-20T23:41:09.621Z,4.60
2023-05-20T23:43:43.449Z,5.00
2023-05-20T23:46:18.794Z,5.00
2023-05-20T23:48:52.517Z,5.00
2023-05-20T23:51:26.017Z,5.30
2023-05-20T23:53:59.952Z,4.80
2023-05-20T23:56:34.330Z,4.50
2023-05-20T23:59:07.780Z,5.20
